sensor_id;sensor_type;location;lat;lon;timestamp;temperature;humidity
37938;DHT22;23763;48.130;11.602;2023-04-24T00:01:51;11.40;99.90
37938;DHT22;23763;48.130;11.602;2023-04-24T00:04:17;11.40;99.90
37938;DHT22;23763;48.130;11.602;2023-04-24T00:06:43;11.30;99.90
37938;DHT22;23763;48.130;11.602;2023-04-24T00:09:09;11.30;99.90
37938;DHT22;23763;48.130;11.602;2023-04-24T00:11:36;11.20;99.90
37938;DHT22;23763;48.130;11.602;2023-04-24T00:14:02;11.30;99.90
37938;DHT22;23763;48.130;11.602;2023-04-24T00:16:27;11.20;99.90
37938;DHT22;23763;48.130;11.602;2023-04-24T00:18:53;11.20;99.90
37938;DHT22;23763;48.130;11.602;2023-04-24T00:21:19;11.20;99.90
37938;DHT22;23763;48.130;11.602;2023-04-24T00:23:46;11.20;99.90
37938;DHT22;23763;48.130;11.602;2023-04-24T00:26:11;11.10;99.90
37938;DHT22;23763;48.130;11.602;2023-04-24T00:28:37;11.10;99.90
37938;DHT22;23763;48.130;11.602;2023-04-24T00:31:02;11.10;99.90
37938;DHT22;23763;48.130;11.602;2023-04-24T00:33:28;11.00;99.90
37938;DHT22;23763;48.130;11.602;2023-04-24T00:35:54;11.10;99.90
37938;DHT22;23763;48.130;11.602;2023-04-24T00:38:19;11.10;99.90
37938;DHT22;23763;48.130;11.602;2023-04-24T00:40:45;11.20;99.90
37938;DHT22;23763;48.130;11.602;2023-04-24T00:43:11;11.20;99.90
37938;DHT22;23763;48.130;11.602;2023-04-24T00:45:37;11.20;99.90
37938;DHT22;23763;48.130;11.602;2023-04-24T00:48:03;11.20;99.90
37938;DHT22;23763;48.130;11.602;2023-04-24T00:50:30;11.20;99.90
37938;DHT22;23763;48.130;11.602;2023-04-24T00:52:55;11.20;99.90
37938;DHT22;23763;48.130;11.602;2023-04-24T00:55:21;11.20;99.90
37938;DHT22;23763;48.130;11.602;2023-04-24T00:57:47;11.10;99.90
37938;DHT22;23763;48.130;11.602;2023-04-24T01:00:15;11.20;99.90
37938;DHT22;23763;48.130;11.602;2023-04-24T01:02:41;11.20;99.90
37938;DHT22;23763;48.130;11.602;2023-04-24T01:05:12;11.20;99.90
37938;DHT22;23763;48.130;11.602;2023-04-24T01:07:38;11.30;99.90
37938;DHT22;23763;48.130;11.602;2023-04-24T01:10:05;11.30;99.90
37938;DHT22;23763;48.130;11.602;2023-04-24T01:12:31;11.30;99.90
37938;DHT22;23763;48.130;11.602;2023-04-24T01:14:57;11.20;99.90
37938;DHT22;23763;48.130;11.602;2023-04-24T01:17:23;11.20;99.90
37938;DHT22;23763;48.130;11.602;2023-04-24T01:19:49;11.20;99.90
37938;DHT22;23763;48.130;11.602;2023-04-24T01:22:15;11.20;99.90
37938;DHT22;23763;48.130;11.602;2023-04-24T01:24:42;11.20;99.90
37938;DHT22;23763;48.130;11.602;2023-04-24T01:27:09;11.20;99.90
37938;DHT22;23763;48.130;11.602;2023-04-24T01:29:35;11.20;99.90
37938;DHT22;23763;48.130;11.602;2023-04-24T01:32:00;11.20;99.90
37938;DHT22;23763;48.130;11.602;2023-04-24T01:34:27;11.20;99.90
37938;DHT22;23763;48.130;11.602;2023-04-24T01:36:52;11.20;99.90
37938;DHT22;23763;48.130;11.602;2023-04-24T01:39:18;11.10;99.90
37938;DHT22;23763;48.130;11.602;2023-04-24T01:41:46;11.20;99.90
37938;DHT22;23763;48.130;11.602;2023-04-24T01:44:12;11.30;99.90
37938;DHT22;23763;48.130;11.602;2023-04-24T01:46:38;11.20;99.90
37938;DHT22;23763;48.130;11.602;2023-04-24T01:49:04;11.20;99.90
37938;DHT22;23763;48.130;11.602;2023-04-24T01:51:29;11.10;99.90
37938;DHT22;23763;48.130;11.602;2023-04-24T01:53:55;11.20;99.90
37938;DHT22;23763;48.130;11.602;2023-04-24T01:56:22;11.20;99.90
37938;DHT22;23763;48.130;11.602;2023-04-24T01:58:49;11.10;99.90
37938;DHT22;23763;48.130;11.602;2023-04-24T02:01:19;11.10;99.90
37938;DHT22;23763;48.130;11.602;2023-04-24T02:03:45;11.10;99.90
37938;DHT22;23763;48.130;11.602;2023-04-24T02:06:11;11.00;99.90
37938;DHT22;23763;48.130;11.602;2023-04-24T02:08:36;11.00;99.90
37938;DHT22;23763;48.130;11.602;2023-04-24T02:11:02;11.10;99.90
37938;DHT22;23763;48.130;11.602;2023-04-24T02:13:28;11.00;99.90
37938;DHT22;23763;48.130;11.602;2023-04-24T02:15:54;10.90;99.90
37938;DHT22;23763;48.130;11.602;2023-04-24T02:18:20;11.00;99.90
37938;DHT22;23763;48.130;11.602;2023-04-24T02:20:46;11.00;99.90
37938;DHT22;23763;48.130;11.602;2023-04-24T02:23:11;11.00;99.90
37938;DHT22;23763;48.130;11.602;2023-04-24T02:25:38;11.00;99.90
37938;DHT22;23763;48.130;11.602;2023-04-24T02:28:04;11.00;99.90
37938;DHT22;23763;48.130;11.602;2023-04-24T02:30:29;11.00;99.90
37938;DHT22;23763;48.130;11.602;2023-04-24T02:32:55;11.10;99.90
37938;DHT22;23763;48.130;11.602;2023-04-24T02:35:21;11.10;99.90
37938;DHT22;23763;48.130;11.602;2023-04-24T02:37:47;11.10;99.90
37938;DHT22;23763;48.130;11.602;2023-04-24T02:40:12;11.10;99.90
37938;DHT22;23763;48.130;11.602;2023-04-24T02:42:38;11.10;99.90
37938;DHT22;23763;48.130;11.602;2023-04-24T02:45:04;11.20;99.90
37938;DHT22;23763;48.130;11.602;2023-04-24T02:47:30;11.20;99.90
37938;DHT22;23763;48.130;11.602;2023-04-24T02:49:56;11.20;99.90
37938;DHT22;23763;48.130;11.602;2023-04-24T02:52:21;11.20;99.90
37938;DHT22;23763;48.130;11.602;2023-04-24T02:54:47;11.10;99.90
37938;DHT22;23763;48.130;11.602;2023-04-24T02:57:13;11.10;99.90
37938;DHT22;23763;48.130;11.602;2023-04-24T02:59:38;11.10;99.90
37938;DHT22;23763;48.130;11.602;2023-04-24T03:02:04;11.00;99.90
37938;DHT22;23763;48.130;11.602;2023-04-24T03:04:29;11.00;99.90
37938;DHT22;23763;48.130;11.602;2023-04-24T03:06:55;10.80;99.90
37938;DHT22;23763;48.130;11.602;2023-04-24T03:09:21;10.80;99.90
37938;DHT22;23763;48.130;11.602;2023-04-24T03:11:47;10.80;99.90
37938;DHT22;23763;48.130;11.602;2023-04-24T03:14:14;10.80;99.90
37938;DHT22;23763;48.130;11.602;2023-04-24T03:16:39;10.80;99.90
37938;DHT22;23763;48.130;11.602;2023-04-24T03:19:05;10.80;99.90
37938;DHT22;23763;48.130;11.602;2023-04-24T03:21:31;10.80;99.90
37938;DHT22;23763;48.130;11.602;2023-04-24T03:23:56;10.80;99.90
37938;DHT22;23763;48.130;11.602;2023-04-24T03:26:22;10.70;99.90
37938;DHT22;23763;48.130;11.602;2023-04-24T03:28:48;10.80;99.90
37938;DHT22;23763;48.130;11.602;2023-04-24T03:31:13;10.50;99.90
37938;DHT22;23763;48.130;11.602;2023-04-24T03:33:40;10.50;99.90
37938;DHT22;23763;48.130;11.602;2023-04-24T03:36:06;10.70;99.90
37938;DHT22;23763;48.130;11.602;2023-04-24T03:38:32;10.60;99.90
37938;DHT22;23763;48.130;11.602;2023-04-24T03:40:58;10.40;99.90
37938;DHT22;23763;48.130;11.602;2023-04-24T03:43:23;10.40;99.90
37938;DHT22;23763;48.130;11.602;2023-04-24T03:45:49;10.50;99.90
37938;DHT22;23763;48.130;11.602;2023-04-24T03:48:15;10.40;99.90
37938;DHT22;23763;48.130;11.602;2023-04-24T03:50:40;10.30;99.90
37938;DHT22;23763;48.130;11.602;2023-04-24T03:53:06;10.50;99.90
37938;DHT22;23763;48.130;11.602;2023-04-24T03:55:32;10.30;99.90
37938;DHT22;23763;48.130;11.602;2023-04-24T03:57:57;10.30;99.90
37938;DHT22;23763;48.130;11.602;2023-04-24T04:00:23;10.10;99.90
37938;DHT22;23763;48.130;11.602;2023-04-24T04:02:49;10.10;99.90
37938;DHT22;23763;48.130;11.602;2023-04-24T04:05:14;10.10;99.90
37938;DHT22;23763;48.130;11.602;2023-04-24T04:07:40;10.10;99.90
37938;DHT22;23763;48.130;11.602;2023-04-24T04:10:06;10.30;99.90
37938;DHT22;23763;48.130;11.602;2023-04-24T04:12:48;10.10;99.90
37938;DHT22;23763;48.130;11.602;2023-04-24T04:15:13;10.20;99.90
37938;DHT22;23763;48.130;11.602;2023-04-24T04:17:45;10.20;99.90
37938;DHT22;23763;48.130;11.602;2023-04-24T04:20:22;10.20;99.90
37938;DHT22;23763;48.130;11.602;2023-04-24T04:22:47;10.20;99.90
37938;DHT22;23763;48.130;11.602;2023-04-24T04:25:16;10.30;99.90
37938;DHT22;23763;48.130;11.602;2023-04-24T04:27:45;10.20;99.90
37938;DHT22;23763;48.130;11.602;2023-04-24T04:30:14;10.30;99.90
37938;DHT22;23763;48.130;11.602;2023-04-24T04:35:36;10.20;99.90
37938;DHT22;23763;48.130;11.602;2023-04-24T04:38:01;10.20;99.90
37938;DHT22;23763;48.130;11.602;2023-04-24T04:40:27;10.20;99.90
37938;DHT22;23763;48.130;11.602;2023-04-24T04:42:53;10.20;99.90
37938;DHT22;23763;48.130;11.602;2023-04-24T04:45:22;10.20;99.90
37938;DHT22;23763;48.130;11.602;2023-04-24T04:47:53;10.20;99.90
37938;DHT22;23763;48.130;11.602;2023-04-24T04:50:20;10.20;99.90
37938;DHT22;23763;48.130;11.602;2023-04-24T04:52:46;10.20;99.90
37938;DHT22;23763;48.130;11.602;2023-04-24T04:55:11;10.30;99.90
37938;DHT22;23763;48.130;11.602;2023-04-24T04:57:39;10.30;99.90
37938;DHT22;23763;48.130;11.602;2023-04-24T05:00:05;10.50;99.90
37938;DHT22;23763;48.130;11.602;2023-04-24T05:02:32;10.50;99.90
37938;DHT22;23763;48.130;11.602;2023-04-24T05:04:57;10.60;99.90
37938;DHT22;23763;48.130;11.602;2023-04-24T05:07:23;10.60;99.90
37938;DHT22;23763;48.130;11.602;2023-04-24T05:09:49;10.60;99.90
37938;DHT22;23763;48.130;11.602;2023-04-24T05:12:14;10.60;99.90
37938;DHT22;23763;48.130;11.602;2023-04-24T05:14:40;10.60;99.90
37938;DHT22;23763;48.130;11.602;2023-04-24T05:17:06;10.70;99.90
37938;DHT22;23763;48.130;11.602;2023-04-24T05:19:31;10.70;99.90
37938;DHT22;23763;48.130;11.602;2023-04-24T05:22:01;10.60;99.90
37938;DHT22;23763;48.130;11.602;2023-04-24T05:24:28;10.80;99.90
37938;DHT22;23763;48.130;11.602;2023-04-24T05:26:54;10.80;99.90
37938;DHT22;23763;48.130;11.602;2023-04-24T05:29:20;10.80;99.90
37938;DHT22;23763;48.130;11.602;2023-04-24T05:31:46;10.70;99.90
37938;DHT22;23763;48.130;11.602;2023-04-24T05:34:12;10.70;99.90
37938;DHT22;23763;48.130;11.602;2023-04-24T05:36:38;10.70;99.90
37938;DHT22;23763;48.130;11.602;2023-04-24T05:39:03;10.70;99.90
37938;DHT22;23763;48.130;11.602;2023-04-24T05:41:30;10.80;99.90
37938;DHT22;23763;48.130;11.602;2023-04-24T05:43:56;10.80;99.90
37938;DHT22;23763;48.130;11.602;2023-04-24T05:46:21;10.80;99.90
37938;DHT22;23763;48.130;11.602;2023-04-24T05:48:47;10.90;99.90
37938;DHT22;23763;48.130;11.602;2023-04-24T05:51:12;11.00;99.90
37938;DHT22;23763;48.130;11.602;2023-04-24T05:53:38;11.10;99.90
37938;DHT22;23763;48.130;11.602;2023-04-24T05:56:04;11.10;99.90
37938;DHT22;23763;48.130;11.602;2023-04-24T05:58:29;11.00;99.90
37938;DHT22;23763;48.130;11.602;2023-04-24T06:00:55;11.00;99.90
37938;DHT22;23763;48.130;11.602;2023-04-24T06:03:22;11.00;99.90
37938;DHT22;23763;48.130;11.602;2023-04-24T06:05:50;11.00;99.90
37938;DHT22;23763;48.130;11.602;2023-04-24T06:08:16;11.20;99.90
37938;DHT22;23763;48.130;11.602;2023-04-24T06:10:42;11.30;99.90
37938;DHT22;23763;48.130;11.602;2023-04-24T06:16:16;11.50;99.90
37938;DHT22;23763;48.130;11.602;2023-04-24T06:18:45;11.50;99.90
37938;DHT22;23763;48.130;11.602;2023-04-24T06:21:12;11.70;99.90
37938;DHT22;23763;48.130;11.602;2023-04-24T06:23:41;11.90;99.90
37938;DHT22;23763;48.130;11.602;2023-04-24T06:26:07;12.00;99.90
37938;DHT22;23763;48.130;11.602;2023-04-24T06:28:33;12.10;99.90
37938;DHT22;23763;48.130;11.602;2023-04-24T06:31:00;12.00;99.90
37938;DHT22;23763;48.130;11.602;2023-04-24T06:33:25;12.00;99.90
37938;DHT22;23763;48.130;11.602;2023-04-24T06:35:52;12.00;99.90
37938;DHT22;23763;48.130;11.602;2023-04-24T06:38:17;12.00;99.90
37938;DHT22;23763;48.130;11.602;2023-04-24T06:40:43;12.00;99.90
37938;DHT22;23763;48.130;11.602;2023-04-24T06:43:10;12.10;99.90
37938;DHT22;23763;48.130;11.602;2023-04-24T06:45:36;12.20;99.90
37938;DHT22;23763;48.130;11.602;2023-04-24T06:48:02;12.40;99.90
37938;DHT22;23763;48.130;11.602;2023-04-24T06:50:28;12.60;99.90
37938;DHT22;23763;48.130;11.602;2023-04-24T06:52:53;12.70;99.90
37938;DHT22;23763;48.130;11.602;2023-04-24T06:55:19;12.80;99.90
37938;DHT22;23763;48.130;11.602;2023-04-24T06:57:44;12.80;99.90
37938;DHT22;23763;48.130;11.602;2023-04-24T07:00:14;13.10;99.90
37938;DHT22;23763;48.130;11.602;2023-04-24T07:02:45;13.40;99.90
37938;DHT22;23763;48.130;11.602;2023-04-24T07:05:11;13.70;99.90
37938;DHT22;23763;48.130;11.602;2023-04-24T07:07:38;14.10;99.90
37938;DHT22;23763;48.130;11.602;2023-04-24T07:10:05;14.20;99.90
37938;DHT22;23763;48.130;11.602;2023-04-24T07:12:31;14.30;99.90
37938;DHT22;23763;48.130;11.602;2023-04-24T07:14:57;14.40;99.90
37938;DHT22;23763;48.130;11.602;2023-04-24T07:17:23;14.20;99.90
37938;DHT22;23763;48.130;11.602;2023-04-24T07:19:52;14.10;99.90
37938;DHT22;23763;48.130;11.602;2023-04-24T07:22:17;14.10;99.90
37938;DHT22;23763;48.130;11.602;2023-04-24T07:24:47;13.80;99.90
37938;DHT22;23763;48.130;11.602;2023-04-24T07:27:14;13.70;99.90
37938;DHT22;23763;48.130;11.602;2023-04-24T07:29:40;14.10;99.90
37938;DHT22;23763;48.130;11.602;2023-04-24T07:32:09;14.20;99.90
37938;DHT22;23763;48.130;11.602;2023-04-24T07:34:41;14.30;99.90
37938;DHT22;23763;48.130;11.602;2023-04-24T07:37:06;14.90;99.90
37938;DHT22;23763;48.130;11.602;2023-04-24T07:39:32;14.80;99.90
37938;DHT22;23763;48.130;11.602;2023-04-24T07:41:58;15.00;99.90
37938;DHT22;23763;48.130;11.602;2023-04-24T07:44:26;15.10;99.90
37938;DHT22;23763;48.130;11.602;2023-04-24T07:46:52;14.60;99.90
37938;DHT22;23763;48.130;11.602;2023-04-24T07:49:18;14.00;99.90
37938;DHT22;23763;48.130;11.602;2023-04-24T07:51:45;13.80;99.90
37938;DHT22;23763;48.130;11.602;2023-04-24T07:54:10;13.80;99.90
37938;DHT22;23763;48.130;11.602;2023-04-24T07:56:39;13.60;99.90
37938;DHT22;23763;48.130;11.602;2023-04-24T07:59:07;13.40;99.90
37938;DHT22;23763;48.130;11.602;2023-04-24T08:01:33;13.50;99.90
37938;DHT22;23763;48.130;11.602;2023-04-24T08:03:58;13.60;99.90
37938;DHT22;23763;48.130;11.602;2023-04-24T08:06:24;13.60;99.90
37938;DHT22;23763;48.130;11.602;2023-04-24T08:08:53;13.70;99.90
37938;DHT22;23763;48.130;11.602;2023-04-24T08:11:18;13.90;99.90
37938;DHT22;23763;48.130;11.602;2023-04-24T08:13:45;13.80;99.90
37938;DHT22;23763;48.130;11.602;2023-04-24T08:16:11;14.20;99.90
37938;DHT22;23763;48.130;11.602;2023-04-24T08:18:37;14.50;99.90
37938;DHT22;23763;48.130;11.602;2023-04-24T08:21:08;14.50;99.90
37938;DHT22;23763;48.130;11.602;2023-04-24T08:23:36;14.30;99.90
37938;DHT22;23763;48.130;11.602;2023-04-24T08:26:02;14.20;99.90
37938;DHT22;23763;48.130;11.602;2023-04-24T08:28:31;13.90;99.90
37938;DHT22;23763;48.130;11.602;2023-04-24T08:30:57;13.60;99.90
37938;DHT22;23763;48.130;11.602;2023-04-24T08:33:23;13.40;99.90
37938;DHT22;23763;48.130;11.602;2023-04-24T08:35:49;13.00;99.90
37938;DHT22;23763;48.130;11.602;2023-04-24T08:38:21;12.90;99.90
37938;DHT22;23763;48.130;11.602;2023-04-24T08:40:50;12.80;99.90
37938;DHT22;23763;48.130;11.602;2023-04-24T08:43:22;12.40;99.90
37938;DHT22;23763;48.130;11.602;2023-04-24T08:45:48;12.40;99.90
37938;DHT22;23763;48.130;11.602;2023-04-24T08:48:14;12.20;99.90
37938;DHT22;23763;48.130;11.602;2023-04-24T08:50:40;11.90;99.90
37938;DHT22;23763;48.130;11.602;2023-04-24T08:53:08;11.80;99.90
37938;DHT22;23763;48.130;11.602;2023-04-24T08:55:34;12.20;99.90
37938;DHT22;23763;48.130;11.602;2023-04-24T08:58:01;12.70;99.90
37938;DHT22;23763;48.130;11.602;2023-04-24T09:00:28;12.80;99.90
37938;DHT22;23763;48.130;11.602;2023-04-24T09:02:55;12.70;99.90
37938;DHT22;23763;48.130;11.602;2023-04-24T09:05:21;12.60;99.90
37938;DHT22;23763;48.130;11.602;2023-04-24T09:07:54;12.40;99.90
37938;DHT22;23763;48.130;11.602;2023-04-24T09:10:24;12.10;99.90
37938;DHT22;23763;48.130;11.602;2023-04-24T09:12:51;12.10;99.90
37938;DHT22;23763;48.130;11.602;2023-04-24T09:15:20;12.10;99.90
37938;DHT22;23763;48.130;11.602;2023-04-24T09:17:47;12.10;99.90
37938;DHT22;23763;48.130;11.602;2023-04-24T09:20:13;12.10;99.90
37938;DHT22;23763;48.130;11.602;2023-04-24T09:22:39;12.30;99.90
37938;DHT22;23763;48.130;11.602;2023-04-24T09:25:07;12.50;99.90
37938;DHT22;23763;48.130;11.602;2023-04-24T09:27:33;12.60;99.90
37938;DHT22;23763;48.130;11.602;2023-04-24T09:29:59;12.60;99.90
37938;DHT22;23763;48.130;11.602;2023-04-24T09:32:26;12.80;99.90
37938;DHT22;23763;48.130;11.602;2023-04-24T09:37:45;12.90;99.90
37938;DHT22;23763;48.130;11.602;2023-04-24T09:40:12;13.00;99.90
37938;DHT22;23763;48.130;11.602;2023-04-24T09:42:38;13.40;99.90
37938;DHT22;23763;48.130;11.602;2023-04-24T09:45:11;13.70;99.90
37938;DHT22;23763;48.130;11.602;2023-04-24T09:47:43;14.00;99.90
37938;DHT22;23763;48.130;11.602;2023-04-24T09:50:15;14.30;99.90
37938;DHT22;23763;48.130;11.602;2023-04-24T09:52:43;14.40;99.90
37938;DHT22;23763;48.130;11.602;2023-04-24T09:55:20;14.30;99.90
37938;DHT22;23763;48.130;11.602;2023-04-24T09:57:54;14.40;99.90
37938;DHT22;23763;48.130;11.602;2023-04-24T10:00:25;14.30;99.90
37938;DHT22;23763;48.130;11.602;2023-04-24T10:03:03;14.30;99.90
37938;DHT22;23763;48.130;11.602;2023-04-24T10:08:08;14.60;99.90
37938;DHT22;23763;48.130;11.602;2023-04-24T10:10:37;14.40;99.90
37938;DHT22;23763;48.130;11.602;2023-04-24T10:13:04;14.50;99.90
37938;DHT22;23763;48.130;11.602;2023-04-24T10:15:30;14.40;99.90
37938;DHT22;23763;48.130;11.602;2023-04-24T10:17:58;14.50;99.90
37938;DHT22;23763;48.130;11.602;2023-04-24T10:20:29;14.70;99.90
37938;DHT22;23763;48.130;11.602;2023-04-24T10:22:56;14.80;99.90
37938;DHT22;23763;48.130;11.602;2023-04-24T10:25:28;14.70;99.90
37938;DHT22;23763;48.130;11.602;2023-04-24T10:27:54;14.80;99.90
37938;DHT22;23763;48.130;11.602;2023-04-24T10:30:25;14.50;99.90
37938;DHT22;23763;48.130;11.602;2023-04-24T10:32:51;14.60;99.90
37938;DHT22;23763;48.130;11.602;2023-04-24T10:35:18;14.80;99.90
37938;DHT22;23763;48.130;11.602;2023-04-24T10:37:56;15.10;99.90
37938;DHT22;23763;48.130;11.602;2023-04-24T10:40:42;15.40;99.90
37938;DHT22;23763;48.130;11.602;2023-04-24T10:43:09;15.30;99.90
37938;DHT22;23763;48.130;11.602;2023-04-24T10:45:37;15.10;99.90
37938;DHT22;23763;48.130;11.602;2023-04-24T10:48:05;14.90;99.90
37938;DHT22;23763;48.130;11.602;2023-04-24T10:50:50;14.70;99.90
37938;DHT22;23763;48.130;11.602;2023-04-24T10:53:18;14.40;99.90
37938;DHT22;23763;48.130;11.602;2023-04-24T10:55:45;14.10;99.90
37938;DHT22;23763;48.130;11.602;2023-04-24T10:58:11;13.80;99.90
37938;DHT22;23763;48.130;11.602;2023-04-24T11:00:39;12.80;99.90
37938;DHT22;23763;48.130;11.602;2023-04-24T11:03:39;12.20;99.90
37938;DHT22;23763;48.130;11.602;2023-04-24T11:15:19;12.50;99.90
37938;DHT22;23763;48.130;11.602;2023-04-24T11:17:45;12.70;99.90
37938;DHT22;23763;48.130;11.602;2023-04-24T11:20:16;13.00;99.90
37938;DHT22;23763;48.130;11.602;2023-04-24T11:22:41;13.40;99.90
37938;DHT22;23763;48.130;11.602;2023-04-24T11:25:08;13.70;99.90
37938;DHT22;23763;48.130;11.602;2023-04-24T11:27:43;13.90;99.90
37938;DHT22;23763;48.130;11.602;2023-04-24T11:30:10;14.00;99.90
37938;DHT22;23763;48.130;11.602;2023-04-24T11:32:41;13.90;99.90
37938;DHT22;23763;48.130;11.602;2023-04-24T11:35:14;14.20;99.90
37938;DHT22;23763;48.130;11.602;2023-04-24T11:37:46;14.00;99.90
37938;DHT22;23763;48.130;11.602;2023-04-24T11:40:13;14.40;99.90
37938;DHT22;23763;48.130;11.602;2023-04-24T11:42:43;14.90;99.90
37938;DHT22;23763;48.130;11.602;2023-04-24T11:47:40;14.90;99.90
37938;DHT22;23763;48.130;11.602;2023-04-24T11:50:07;14.60;99.90
37938;DHT22;23763;48.130;11.602;2023-04-24T11:52:37;14.40;99.90
37938;DHT22;23763;48.130;11.602;2023-04-24T11:55:03;14.50;99.90
37938;DHT22;23763;48.130;11.602;2023-04-24T11:57:30;14.50;99.90
37938;DHT22;23763;48.130;11.602;2023-04-24T12:00:03;14.30;99.90
37938;DHT22;23763;48.130;11.602;2023-04-24T12:02:30;14.20;99.90
37938;DHT22;23763;48.130;11.602;2023-04-24T12:04:56;14.30;99.90
37938;DHT22;23763;48.130;11.602;2023-04-24T12:07:23;14.50;99.90
37938;DHT22;23763;48.130;11.602;2023-04-24T12:09:57;14.30;99.90
37938;DHT22;23763;48.130;11.602;2023-04-24T12:12:25;14.40;99.90
37938;DHT22;23763;48.130;11.602;2023-04-24T12:14:58;14.50;99.90
37938;DHT22;23763;48.130;11.602;2023-04-24T12:19:51;14.70;99.90
37938;DHT22;23763;48.130;11.602;2023-04-24T12:22:17;14.60;99.90
37938;DHT22;23763;48.130;11.602;2023-04-24T12:25:03;14.70;99.90
37938;DHT22;23763;48.130;11.602;2023-04-24T12:27:33;14.80;99.90
37938;DHT22;23763;48.130;11.602;2023-04-24T12:30:01;14.90;99.90
37938;DHT22;23763;48.130;11.602;2023-04-24T12:32:28;15.20;99.90
37938;DHT22;23763;48.130;11.602;2023-04-24T12:34:54;15.10;99.90
37938;DHT22;23763;48.130;11.602;2023-04-24T12:37:23;15.20;99.90
37938;DHT22;23763;48.130;11.602;2023-04-24T12:39:59;15.20;99.90
37938;DHT22;23763;48.130;11.602;2023-04-24T12:42:26;15.30;99.90
37938;DHT22;23763;48.130;11.602;2023-04-24T12:44:56;15.50;99.90
37938;DHT22;23763;48.130;11.602;2023-04-24T12:47:23;15.50;99.90
37938;DHT22;23763;48.130;11.602;2023-04-24T12:49:49;15.80;99.90
37938;DHT22;23763;48.130;11.602;2023-04-24T12:52:16;15.80;99.90
37938;DHT22;23763;48.130;11.602;2023-04-24T12:54:42;16.00;99.90
37938;DHT22;23763;48.130;11.602;2023-04-24T12:57:08;15.70;99.90
37938;DHT22;23763;48.130;11.602;2023-04-24T12:59:34;15.60;99.90
37938;DHT22;23763;48.130;11.602;2023-04-24T13:02:09;15.40;99.90
37938;DHT22;23763;48.130;11.602;2023-04-24T13:04:35;15.70;99.90
37938;DHT22;23763;48.130;11.602;2023-04-24T13:07:01;15.80;99.90
37938;DHT22;23763;48.130;11.602;2023-04-24T13:09:26;16.20;99.90
37938;DHT22;23763;48.130;11.602;2023-04-24T13:11:52;16.30;99.90
37938;DHT22;23763;48.130;11.602;2023-04-24T13:14:18;16.40;99.90
37938;DHT22;23763;48.130;11.602;2023-04-24T13:16:43;16.20;99.90
37938;DHT22;23763;48.130;11.602;2023-04-24T13:19:09;15.80;99.90
37938;DHT22;23763;48.130;11.602;2023-04-24T13:21:35;15.50;99.90
37938;DHT22;23763;48.130;11.602;2023-04-24T13:24:01;15.10;99.90
37938;DHT22;23763;48.130;11.602;2023-04-24T13:26:27;14.90;99.90
37938;DHT22;23763;48.130;11.602;2023-04-24T13:28:52;14.80;99.90
37938;DHT22;23763;48.130;11.602;2023-04-24T13:31:18;14.60;99.90
37938;DHT22;23763;48.130;11.602;2023-04-24T13:33:44;14.70;99.90
37938;DHT22;23763;48.130;11.602;2023-04-24T13:36:09;14.80;99.90
37938;DHT22;23763;48.130;11.602;2023-04-24T13:38:35;15.10;99.90
37938;DHT22;23763;48.130;11.602;2023-04-24T13:41:01;15.20;99.90
37938;DHT22;23763;48.130;11.602;2023-04-24T13:43:26;15.50;99.90
37938;DHT22;23763;48.130;11.602;2023-04-24T13:45:52;15.50;99.90
37938;DHT22;23763;48.130;11.602;2023-04-24T13:48:18;15.50;99.90
37938;DHT22;23763;48.130;11.602;2023-04-24T13:50:43;15.40;99.90
37938;DHT22;23763;48.130;11.602;2023-04-24T13:53:10;15.40;99.90
37938;DHT22;23763;48.130;11.602;2023-04-24T13:55:35;15.20;99.90
37938;DHT22;23763;48.130;11.602;2023-04-24T13:58:02;15.10;99.90
37938;DHT22;23763;48.130;11.602;2023-04-24T14:00:28;14.90;99.90
37938;DHT22;23763;48.130;11.602;2023-04-24T14:02:54;14.90;99.90
37938;DHT22;23763;48.130;11.602;2023-04-24T14:05:19;14.90;99.90
37938;DHT22;23763;48.130;11.602;2023-04-24T14:07:47;15.10;99.90
37938;DHT22;23763;48.130;11.602;2023-04-24T14:10:12;15.20;99.90
37938;DHT22;23763;48.130;11.602;2023-04-24T14:12:38;15.20;99.90
37938;DHT22;23763;48.130;11.602;2023-04-24T14:15:04;15.10;99.90
37938;DHT22;23763;48.130;11.602;2023-04-24T14:17:30;15.30;99.90
37938;DHT22;23763;48.130;11.602;2023-04-24T14:19:56;15.40;99.90
37938;DHT22;23763;48.130;11.602;2023-04-24T14:22:22;15.30;99.90
37938;DHT22;23763;48.130;11.602;2023-04-24T14:24:48;15.20;99.90
37938;DHT22;23763;48.130;11.602;2023-04-24T14:27:13;15.10;99.90
37938;DHT22;23763;48.130;11.602;2023-04-24T14:29:39;15.20;99.90
37938;DHT22;23763;48.130;11.602;2023-04-24T14:32:05;15.40;99.90
37938;DHT22;23763;48.130;11.602;2023-04-24T14:34:30;15.50;99.90
37938;DHT22;23763;48.130;11.602;2023-04-24T14:36:56;15.60;99.60
37938;DHT22;23763;48.130;11.602;2023-04-24T14:39:22;15.70;99.00
37938;DHT22;23763;48.130;11.602;2023-04-24T14:41:47;15.60;99.20
37938;DHT22;23763;48.130;11.602;2023-04-24T14:44:13;15.60;99.20
37938;DHT22;23763;48.130;11.602;2023-04-24T14:46:39;15.60;99.20
37938;DHT22;23763;48.130;11.602;2023-04-24T14:49:05;15.60;99.10
37938;DHT22;23763;48.130;11.602;2023-04-24T14:51:30;15.50;99.80
37938;DHT22;23763;48.130;11.602;2023-04-24T14:53:56;15.40;98.40
37938;DHT22;23763;48.130;11.602;2023-04-24T14:56:23;15.20;99.10
37938;DHT22;23763;48.130;11.602;2023-04-24T14:58:48;15.20;99.00
37938;DHT22;23763;48.130;11.602;2023-04-24T15:01:14;15.10;98.90
37938;DHT22;23763;48.130;11.602;2023-04-24T15:03:40;14.90;98.80
37938;DHT22;23763;48.130;11.602;2023-04-24T15:06:06;14.70;97.70
37938;DHT22;23763;48.130;11.602;2023-04-24T15:08:32;14.90;98.30
37938;DHT22;23763;48.130;11.602;2023-04-24T15:10:57;14.90;98.70
37938;DHT22;23763;48.130;11.602;2023-04-24T15:13:23;14.90;97.20
37938;DHT22;23763;48.130;11.602;2023-04-24T15:15:49;14.80;97.20
37938;DHT22;23763;48.130;11.602;2023-04-24T15:18:14;14.50;97.60
37938;DHT22;23763;48.130;11.602;2023-04-24T15:20:40;14.40;98.10
37938;DHT22;23763;48.130;11.602;2023-04-24T15:23:08;14.30;97.70
37938;DHT22;23763;48.130;11.602;2023-04-24T15:25:34;14.40;97.70
37938;DHT22;23763;48.130;11.602;2023-04-24T15:28:00;14.50;97.30
37938;DHT22;23763;48.130;11.602;2023-04-24T15:30:26;14.50;96.50
37938;DHT22;23763;48.130;11.602;2023-04-24T15:32:52;14.50;95.90
37938;DHT22;23763;48.130;11.602;2023-04-24T15:35:17;14.60;95.80
37938;DHT22;23763;48.130;11.602;2023-04-24T15:37:43;14.60;95.40
37938;DHT22;23763;48.130;11.602;2023-04-24T15:40:10;14.40;96.30